createdAt,value
2022-09-29T00:00:01.157Z,66.7
2022-09-29T00:01:01.244Z,66.6
2022-09-29T00:02:01.318Z,66.0
2022-09-29T00:03:01.807Z,65.5
2022-09-29T00:04:01.796Z,66.2
2022-09-29T00:05:01.239Z,65.5
2022-09-29T00:06:01.351Z,65.8
2022-09-29T00:07:01.227Z,66.4
2022-09-29T00:08:01.661Z,66.4
2022-09-29T00:09:01.260Z,66.6
2022-09-29T00:10:01.241Z,67.1
2022-09-29T00:11:00.959Z,66.7
2022-09-29T00:12:01.391Z,66.6
2022-09-29T00:13:01.243Z,67.1
2022-09-29T00:14:01.043Z,66.2
2022-09-29T00:15:01.314Z,65.8
2022-09-29T00:16:03.173Z,66.6
2022-09-29T00:17:01.220Z,66.6
2022-09-29T00:18:13.663Z,66.6
2022-09-29T00:19:01.230Z,66.9
2022-09-29T00:20:01.373Z,67.6
2022-09-29T00:21:03.410Z,67.1
2022-09-29T00:22:01.299Z,66.2
2022-09-29T00:23:01.035Z,66.9
2022-09-29T00:24:01.232Z,66.9
2022-09-29T00:25:01.518Z,66.6
2022-09-29T00:26:03.815Z,66.2
2022-09-29T00:27:01.590Z,66.7
2022-09-29T00:28:01.225Z,67.6
2022-09-29T00:29:01.306Z,67.3
2022-09-29T00:30:01.239Z,67.1
2022-09-29T00:31:02.207Z,65.5
2022-09-29T00:32:01.260Z,66.4
2022-09-29T00:33:00.962Z,66.6
2022-09-29T00:34:00.927Z,66.4
2022-09-29T00:35:01.017Z,66.2
2022-09-29T00:36:03.893Z,66.0
2022-09-29T00:37:01.485Z,66.9
2022-09-29T00:38:01.245Z,66.4
2022-09-29T00:39:01.272Z,67.3
2022-09-29T00:40:01.628Z,67.8
2022-09-29T00:41:02.266Z,68.2
2022-09-29T00:42:01.335Z,66.6
2022-09-29T00:43:01.285Z,66.0
2022-09-29T00:44:04.126Z,67.1
2022-09-29T00:45:11.713Z,66.9
2022-09-29T00:46:01.076Z,66.9
2022-09-29T00:47:03.910Z,67.1
2022-09-29T00:48:09.926Z,66.6
2022-09-29T00:49:05.812Z,66.4
2022-09-29T00:50:06.116Z,65.5
2022-09-29T00:51:01.142Z,64.8
2022-09-29T00:52:04.705Z,64.8
2022-09-29T00:53:02.585Z,64.6
2022-09-29T00:54:02.266Z,65.3
2022-09-29T00:55:06.782Z,64.9
2022-09-29T00:56:05.293Z,64.6
2022-09-29T00:57:03.532Z,64.0
2022-09-29T00:58:06.251Z,64.2
2022-09-29T00:59:04.906Z,64.4
2022-09-29T01:00:05.018Z,64.9
2022-09-29T01:01:01.750Z,64.9
2022-09-29T01:02:01.024Z,64.4
2022-09-29T01:03:07.390Z,64.6
2022-09-29T01:04:06.091Z,65.1
2022-09-29T01:05:06.408Z,64.8
2022-09-29T01:06:05.773Z,64.2
2022-09-29T01:07:01.621Z,64.9
2022-09-29T01:08:09.164Z,65.1
2022-09-29T01:09:05.178Z,64.8
2022-09-29T01:10:02.453Z,64.6
2022-09-29T01:11:03.319Z,64.8
2022-09-29T01:12:01.528Z,64.4
2022-09-29T01:13:02.286Z,63.7
2022-09-29T01:14:05.847Z,63.7
2022-09-29T01:15:01.385Z,63.5
2022-09-29T01:16:01.546Z,63.3
2022-09-29T01:17:01.284Z,63.5
2022-09-29T01:18:01.224Z,63.5
2022-09-29T01:19:06.397Z,63.9
2022-09-29T01:20:10.128Z,63.7
2022-09-29T01:21:11.291Z,63.9
2022-09-29T01:22:13.214Z,64.0
2022-09-29T01:23:20.405Z,64.6
2022-09-29T01:24:20.631Z,63.9
2022-09-29T01:25:20.409Z,64.0
2022-09-29T01:26:20.434Z,64.2
2022-09-29T01:27:10.037Z,64.0
2022-09-29T01:28:20.409Z,63.3
2022-09-29T01:29:20.407Z,63.5
2022-09-29T01:30:07.620Z,63.5
2022-09-29T01:31:12.362Z,64.0
2022-09-29T01:32:11.080Z,63.1
2022-09-29T01:33:15.031Z,63.3
2022-09-29T01:34:06.674Z,63.7
2022-09-29T01:35:12.628Z,63.1
2022-09-29T01:36:08.366Z,63.5
2022-09-29T01:37:09.689Z,63.7
2022-09-29T01:38:13.650Z,63.5
2022-09-29T01:39:13.814Z,63.3
2022-09-29T01:40:08.419Z,63.3
2022-09-29T01:41:09.802Z,63.3
2022-09-29T01:42:07.857Z,63.1
2022-09-29T01:43:07.635Z,62.4
2022-09-29T01:44:08.028Z,62.2
2022-09-29T01:45:08.634Z,62.2
2022-09-29T01:46:04.136Z,61.9
2022-09-29T01:47:08.648Z,61.0
2022-09-29T01:48:05.451Z,60.8
2022-09-29T01:49:03.510Z,61.0
2022-09-29T01:50:06.883Z,61.5
2022-09-29T01:51:06.517Z,61.3
2022-09-29T01:52:06.690Z,60.8
2022-09-29T01:53:08.302Z,61.7
2022-09-29T01:54:07.574Z,61.9
2022-09-29T01:55:02.838Z,61.7
2022-09-29T01:56:05.087Z,61.5
2022-09-29T01:57:09.314Z,61.2
2022-09-29T01:58:04.794Z,61.5
2022-09-29T01:59:08.977Z,61.7
2022-09-29T02:00:05.048Z,61.2
2022-09-29T02:01:09.355Z,61.2
2022-09-29T02:02:08.586Z,61.3
2022-09-29T02:03:08.944Z,61.5
2022-09-29T02:04:07.050Z,61.9
2022-09-29T02:05:04.290Z,62.2
2022-09-29T02:06:06.990Z,62.6
2022-09-29T02:07:07.928Z,62.1
2022-09-29T02:08:07.346Z,62.2
2022-09-29T02:09:04.054Z,61.5
2022-09-29T02:10:04.730Z,61.7
2022-09-29T02:11:03.426Z,61.2
2022-09-29T02:12:02.719Z,61.3
2022-09-29T02:13:05.655Z,61.3
2022-09-29T02:14:06.320Z,61.7
2022-09-29T02:15:05.284Z,61.2
2022-09-29T02:16:03.767Z,60.8
2022-09-29T02:17:06.235Z,61.0
2022-09-29T02:18:09.349Z,60.8
2022-09-29T02:19:07.708Z,60.8
2022-09-29T02:20:02.778Z,60.8
2022-09-29T02:21:01.207Z,60.3
2022-09-29T02:22:01.139Z,60.6
2022-09-29T02:23:02.231Z,60.1
2022-09-29T02:24:01.578Z,60.1
2022-09-29T02:25:00.971Z,60.3
2022-09-29T02:26:03.171Z,60.3
2022-09-29T02:27:02.525Z,60.3
2022-09-29T02:28:01.815Z,60.3
2022-09-29T02:29:02.474Z,60.4
2022-09-29T02:30:00.986Z,60.8
2022-09-29T02:31:01.436Z,60.4
2022-09-29T02:32:02.125Z,60.6
2022-09-29T02:33:01.087Z,60.4
2022-09-29T02:34:03.844Z,60.4
2022-09-29T02:35:04.199Z,60.4
2022-09-29T02:36:17.733Z,60.4
2022-09-29T02:37:12.455Z,60.4
2022-09-29T02:38:07.138Z,60.3
2022-09-29T02:39:05.777Z,60.1
2022-09-29T02:40:14.847Z,60.8
2022-09-29T02:41:07.227Z,61.2
2022-09-29T02:42:10.456Z,60.4
2022-09-29T02:43:11.538Z,60.3
2022-09-29T02:44:18.777Z,60.4
2022-09-29T02:45:19.116Z,60.3
2022-09-29T02:46:14.435Z,60.3
2022-09-29T02:47:18.901Z,60.3
2022-09-29T02:48:14.371Z,60.4
2022-09-29T02:49:18.134Z,60.8
2022-09-29T02:50:20.428Z,61.2
2022-09-29T02:51:15.679Z,61.5
2022-09-29T02:52:12.861Z,60.8
2022-09-29T02:53:09.282Z,60.6
2022-09-29T02:54:16.433Z,60.6
2022-09-29T02:55:12.119Z,60.6
2022-09-29T02:56:12.818Z,60.4
2022-09-29T02:57:14.210Z,60.4
2022-09-29T02:58:09.781Z,61.2
2022-09-29T02:59:06.974Z,60.4
2022-09-29T03:00:07.861Z,60.4
2022-09-29T03:01:02.722Z,60.4
2022-09-29T03:02:01.429Z,59.5
2022-09-29T03:03:00.990Z,59.5
2022-09-29T03:04:04.402Z,59.2
2022-09-29T03:05:02.083Z,59.5
2022-09-29T03:06:01.126Z,59.4
2022-09-29T03:07:00.966Z,59.2
2022-09-29T03:08:01.282Z,60.3
2022-09-29T03:09:00.954Z,60.6
2022-09-29T03:10:01.202Z,60.1
2022-09-29T03:11:00.960Z,59.9
2022-09-29T03:12:01.153Z,60.4
2022-09-29T03:14:00.983Z,61.3
2022-09-29T03:15:01.676Z,61.2
2022-09-29T03:16:01.309Z,61.2
2022-09-29T03:17:01.243Z,60.6
2022-09-29T03:18:00.950Z,60.3
2022-09-29T03:19:01.360Z,60.1
2022-09-29T03:20:01.320Z,60.6
2022-09-29T03:21:01.158Z,60.1
2022-09-29T03:22:00.966Z,60.4
2022-09-29T03:23:00.943Z,60.6
2022-09-29T03:24:01.763Z,59.7
2022-09-29T03:25:01.046Z,60.3
2022-09-29T03:26:01.227Z,59.9
2022-09-29T03:27:01.446Z,60.1
2022-09-29T03:28:01.134Z,59.5
2022-09-29T03:29:01.240Z,59.4
2022-09-29T03:30:01.384Z,59.7
2022-09-29T03:31:04.846Z,60.1
2022-09-29T03:32:02.179Z,60.1
2022-09-29T03:33:00.943Z,60.3
2022-09-29T03:34:01.326Z,59.7
2022-09-29T03:35:01.328Z,59.0
2022-09-29T03:36:01.371Z,58.8
2022-09-29T03:37:02.396Z,58.6
2022-09-29T03:38:01.260Z,59.4
2022-09-29T03:39:00.980Z,59.2
2022-09-29T03:40:01.283Z,59.4
2022-09-29T03:41:01.373Z,59.4
2022-09-29T03:42:00.977Z,59.0
2022-09-29T03:43:01.185Z,58.5
2022-09-29T03:44:01.218Z,59.2
2022-09-29T03:45:00.945Z,59.2
2022-09-29T03:46:01.390Z,59.0
2022-09-29T03:47:00.953Z,58.8
2022-09-29T03:48:01.046Z,59.2
2022-09-29T03:49:01.251Z,59.5
2022-09-29T03:50:01.244Z,59.4
2022-09-29T03:51:01.651Z,59.7
2022-09-29T03:52:00.992Z,58.8
2022-09-29T03:53:00.938Z,58.8
2022-09-29T03:54:01.231Z,58.6
2022-09-29T03:55:01.287Z,59.0
2022-09-29T03:56:02.004Z,58.8
2022-09-29T03:57:01.251Z,59.7
2022-09-29T03:58:01.257Z,60.1
2022-09-29T03:59:00.931Z,59.9
2022-09-29T04:00:01.221Z,60.1
2022-09-29T04:01:01.333Z,59.5
2022-09-29T04:02:00.968Z,59.7
2022-09-29T04:03:00.971Z,59.5
2022-09-29T04:04:01.485Z,59.4
2022-09-29T04:05:01.226Z,59.0
2022-09-29T04:06:01.312Z,58.8
2022-09-29T04:07:00.974Z,60.1
2022-09-29T04:08:01.254Z,59.7
2022-09-29T04:09:01.145Z,59.4
2022-09-29T04:10:00.999Z,61.2
2022-09-29T04:11:00.944Z,60.6
2022-09-29T04:12:01.444Z,60.1
2022-09-29T04:13:01.270Z,59.0
2022-09-29T04:14:01.281Z,58.8
2022-09-29T04:15:01.268Z,59.0
2022-09-29T04:16:03.230Z,58.5
2022-09-29T04:17:00.979Z,59.0
2022-09-29T04:18:01.335Z,58.8
2022-09-29T04:19:01.282Z,58.8
2022-09-29T04:20:01.380Z,59.5
2022-09-29T04:21:05.746Z,60.4
2022-09-29T04:22:00.947Z,59.9
2022-09-29T04:23:01.219Z,58.8
2022-09-29T04:24:01.322Z,58.5
2022-09-29T04:25:00.964Z,58.1
2022-09-29T04:26:01.001Z,58.3
2022-09-29T04:27:01.134Z,58.3
2022-09-29T04:28:01.390Z,58.1
2022-09-29T04:29:01.233Z,58.6
2022-09-29T04:30:01.258Z,59.2
2022-09-29T04:31:01.251Z,59.2
2022-09-29T04:32:01.183Z,58.3
2022-09-29T04:33:00.940Z,58.3
2022-09-29T04:34:01.055Z,58.1
2022-09-29T04:35:01.019Z,57.9
2022-09-29T04:36:01.813Z,57.9
2022-09-29T04:37:01.336Z,58.1
2022-09-29T04:38:01.388Z,57.9
2022-09-29T04:39:01.247Z,57.9
2022-09-29T04:40:01.469Z,57.6
2022-09-29T04:41:01.055Z,58.1
2022-09-29T04:42:01.035Z,57.9
2022-09-29T04:43:01.490Z,57.7
2022-09-29T04:44:01.327Z,57.6
2022-09-29T04:45:01.841Z,57.0
2022-09-29T04:46:03.000Z,57.9
2022-09-29T04:47:01.241Z,57.9
2022-09-29T04:48:01.425Z,58.6
2022-09-29T04:49:01.102Z,58.1
2022-09-29T04:50:00.942Z,58.6
2022-09-29T04:51:01.084Z,58.8
2022-09-29T04:52:01.469Z,58.8
2022-09-29T04:53:01.302Z,57.9
2022-09-29T04:54:00.968Z,57.9
2022-09-29T04:55:01.364Z,57.2
2022-09-29T04:56:05.350Z,57.6
2022-09-29T04:57:01.250Z,57.4
2022-09-29T04:58:00.939Z,57.9
2022-09-29T04:59:01.331Z,57.4
2022-09-29T05:00:01.367Z,57.9
2022-09-29T05:01:06.464Z,58.1
2022-09-29T05:02:01.369Z,58.5
2022-09-29T05:03:00.943Z,57.9
2022-09-29T05:04:01.819Z,57.9
2022-09-29T05:05:01.369Z,57.6
2022-09-29T05:06:01.130Z,57.9
2022-09-29T05:07:00.963Z,57.4
2022-09-29T05:08:03.224Z,56.8
2022-09-29T05:09:00.937Z,56.7
2022-09-29T05:10:01.244Z,56.8
2022-09-29T05:11:03.177Z,56.5
2022-09-29T05:12:01.554Z,57.2
2022-09-29T05:13:01.242Z,57.7
2022-09-29T05:14:01.453Z,57.7
2022-09-29T05:15:01.572Z,57.0
2022-09-29T05:16:01.709Z,56.8
2022-09-29T05:17:01.250Z,57.0
2022-09-29T05:18:01.442Z,57.9
2022-09-29T05:19:01.274Z,57.2
2022-09-29T05:20:01.559Z,57.6
2022-09-29T05:21:25.874Z,57.9
2022-09-29T05:22:01.712Z,58.1
2022-09-29T05:23:01.324Z,57.7
2022-09-29T05:24:01.572Z,58.8
2022-09-29T05:25:01.279Z,59.0
2022-09-29T05:26:01.395Z,57.9
2022-09-29T05:27:01.248Z,57.7
2022-09-29T05:28:00.963Z,57.0
2022-09-29T05:29:01.183Z,57.6
2022-09-29T05:30:01.368Z,58.1
2022-09-29T05:31:01.653Z,57.4
2022-09-29T05:32:01.165Z,57.6
2022-09-29T05:33:01.141Z,57.6
2022-09-29T05:34:00.970Z,57.9
2022-09-29T05:35:01.276Z,58.5
2022-09-29T05:36:03.445Z,58.6
2022-09-29T05:37:00.926Z,58.5
2022-09-29T05:38:01.533Z,58.6
2022-09-29T05:39:02.076Z,57.6
2022-09-29T05:40:01.506Z,57.9
2022-09-29T05:41:04.155Z,57.6
2022-09-29T05:42:01.442Z,57.7
2022-09-29T05:43:01.253Z,56.8
2022-09-29T05:44:01.788Z,56.5
2022-09-29T05:45:01.032Z,56.1
2022-09-29T05:46:01.893Z,56.1
2022-09-29T05:47:00.935Z,56.3
2022-09-29T05:48:01.544Z,57.4
2022-09-29T05:49:01.333Z,56.7
2022-09-29T05:50:01.276Z,56.3
2022-09-29T05:51:08.478Z,55.6
2022-09-29T05:52:01.220Z,55.6
2022-09-29T05:53:02.579Z,56.3
2022-09-29T05:54:00.970Z,56.3
2022-09-29T05:55:01.188Z,56.8
2022-09-29T05:56:04.602Z,57.2
2022-09-29T05:57:01.236Z,57.6
2022-09-29T05:58:01.251Z,57.4
2022-09-29T05:59:01.295Z,57.7
2022-09-29T06:00:01.238Z,57.0
2022-09-29T06:01:05.780Z,57.0
2022-09-29T06:02:01.335Z,56.8
2022-09-29T06:03:01.724Z,57.0
2022-09-29T06:04:01.504Z,56.5
2022-09-29T06:05:00.932Z,56.1
2022-09-29T06:06:05.839Z,55.8
2022-09-29T06:07:01.525Z,56.5
2022-09-29T06:08:01.284Z,56.5
2022-09-29T06:09:01.358Z,56.7
2022-09-29T06:10:01.309Z,57.0
2022-09-29T06:11:04.064Z,56.5
2022-09-29T06:12:01.286Z,56.7
2022-09-29T06:13:01.271Z,56.5
2022-09-29T06:14:01.913Z,55.9
2022-09-29T06:15:01.416Z,56.7
2022-09-29T06:16:01.288Z,56.5
2022-09-29T06:17:01.097Z,56.8
2022-09-29T06:18:00.959Z,56.8
2022-09-29T06:19:02.224Z,56.1
2022-09-29T06:20:01.922Z,56.5
2022-09-29T06:21:02.001Z,56.5
2022-09-29T06:22:00.965Z,56.8
2022-09-29T06:23:00.944Z,56.8
2022-09-29T06:24:01.636Z,56.7
2022-09-29T06:25:00.972Z,56.3
2022-09-29T06:26:04.481Z,57.0
2022-09-29T06:27:00.943Z,57.7
2022-09-29T06:28:01.420Z,57.2
2022-09-29T06:29:01.805Z,57.4
2022-09-29T06:30:00.953Z,58.1
2022-09-29T06:31:03.721Z,57.6
2022-09-29T06:32:01.308Z,56.8
2022-09-29T06:33:00.944Z,56.7
2022-09-29T06:34:03.959Z,56.8
2022-09-29T06:35:01.247Z,56.1
2022-09-29T06:36:06.054Z,56.1
2022-09-29T06:37:01.004Z,56.7
2022-09-29T06:38:01.313Z,56.3
2022-09-29T06:39:02.232Z,56.1
2022-09-29T06:40:01.432Z,56.7
2022-09-29T06:41:00.952Z,56.3
2022-09-29T06:42:00.940Z,56.8
2022-09-29T06:43:00.956Z,55.9
2022-09-29T06:44:01.886Z,56.1
2022-09-29T06:45:01.300Z,55.6
2022-09-29T06:46:02.935Z,55.6
2022-09-29T06:47:00.940Z,54.9
2022-09-29T06:48:01.219Z,54.9
2022-09-29T06:49:01.526Z,55.2
2022-09-29T06:50:12.618Z,55.8
2022-09-29T06:51:09.455Z,55.6
2022-09-29T06:52:06.694Z,55.9
2022-09-29T06:53:04.307Z,55.8
2022-09-29T06:54:10.813Z,55.6
2022-09-29T06:55:01.266Z,56.1
2022-09-29T06:56:01.534Z,56.1
2022-09-29T06:57:01.262Z,55.8
2022-09-29T06:58:04.120Z,55.6
2022-09-29T06:59:00.920Z,55.4
2022-09-29T07:00:01.122Z,55.6
2022-09-29T07:01:02.720Z,55.2
2022-09-29T07:02:01.185Z,55.9
2022-09-29T07:03:01.333Z,55.6
2022-09-29T07:04:01.047Z,55.9
2022-09-29T07:05:01.258Z,56.1
2022-09-29T07:06:18.726Z,56.1
2022-09-29T07:07:01.327Z,56.3
2022-09-29T07:08:01.669Z,55.4
2022-09-29T07:09:00.955Z,56.1
2022-09-29T07:10:00.943Z,57.0
2022-09-29T07:11:00.947Z,57.2
2022-09-29T07:12:01.688Z,57.0
2022-09-29T07:13:00.952Z,56.1
2022-09-29T07:14:00.983Z,56.1
2022-09-29T07:15:01.233Z,56.3
2022-09-29T07:16:06.207Z,56.3
2022-09-29T07:17:00.950Z,55.9
2022-09-29T07:18:01.723Z,55.9
2022-09-29T07:19:00.959Z,56.1
2022-09-29T07:20:01.419Z,55.9
2022-09-29T07:21:01.313Z,55.9
2022-09-29T07:22:00.949Z,56.3
2022-09-29T07:23:01.262Z,55.8
2022-09-29T07:24:02.299Z,55.9
2022-09-29T07:25:00.935Z,55.9
2022-09-29T07:26:01.399Z,56.3
2022-09-29T07:27:01.028Z,55.6
2022-09-29T07:28:01.675Z,56.3
2022-09-29T07:29:01.050Z,56.3
2022-09-29T07:30:03.590Z,56.3
2022-09-29T07:31:13.169Z,55.9
2022-09-29T07:32:01.250Z,56.8
2022-09-29T07:33:02.595Z,56.1
2022-09-29T07:34:01.149Z,56.8
2022-09-29T07:35:01.306Z,56.7
2022-09-29T07:36:01.573Z,55.8
2022-09-29T07:37:00.938Z,55.8
2022-09-29T07:38:00.968Z,56.1
2022-09-29T07:39:00.955Z,55.9
2022-09-29T07:40:01.657Z,55.6
2022-09-29T07:41:01.911Z,55.9
2022-09-29T07:42:01.005Z,56.1
2022-09-29T07:43:00.961Z,55.6
2022-09-29T07:44:01.247Z,55.4
2022-09-29T07:45:01.496Z,56.3
2022-09-29T07:46:01.797Z,56.8
2022-09-29T07:47:01.229Z,56.1
2022-09-29T07:48:01.269Z,56.5
2022-09-29T07:49:01.550Z,55.6
2022-09-29T07:50:00.940Z,55.2
2022-09-29T07:51:01.879Z,54.7
2022-09-29T07:52:01.076Z,54.7
2022-09-29T07:53:00.935Z,54.9
2022-09-29T07:54:01.403Z,54.7
2022-09-29T07:55:01.258Z,54.3
2022-09-29T07:56:02.938Z,55.0
2022-09-29T07:57:01.232Z,54.1
2022-09-29T07:58:01.263Z,54.5
2022-09-29T07:59:01.011Z,54.5
2022-09-29T08:00:01.506Z,54.7
2022-09-29T08:01:01.965Z,54.5
2022-09-29T08:02:01.335Z,54.1
2022-09-29T08:03:01.062Z,55.2
2022-09-29T08:04:01.547Z,55.2
2022-09-29T08:05:05.472Z,54.9
2022-09-29T08:06:00.975Z,54.7
2022-09-29T08:07:01.115Z,55.2
2022-09-29T08:08:02.099Z,55.8
2022-09-29T08:09:04.203Z,55.4
2022-09-29T08:10:10.757Z,54.9
2022-09-29T08:11:03.356Z,54.5
2022-09-29T08:12:07.576Z,55.0
2022-09-29T08:13:00.944Z,55.2
2022-09-29T08:14:01.581Z,54.0
2022-09-29T08:15:00.957Z,54.3
2022-09-29T08:16:02.531Z,54.9
2022-09-29T08:17:00.981Z,55.0
2022-09-29T08:18:01.510Z,55.2
2022-09-29T08:19:01.797Z,55.2
2022-09-29T08:20:01.029Z,54.3
2022-09-29T08:21:03.902Z,54.3
2022-09-29T08:22:00.926Z,54.7
2022-09-29T08:23:01.463Z,54.5
2022-09-29T08:24:01.351Z,54.9
2022-09-29T08:25:01.989Z,54.5
2022-09-29T08:26:02.228Z,54.0
2022-09-29T08:27:13.206Z,53.6
2022-09-29T08:28:01.386Z,53.4
2022-09-29T08:29:06.874Z,54.1
2022-09-29T08:30:00.959Z,54.3
2022-09-29T08:31:04.313Z,54.9
2022-09-29T08:32:01.258Z,55.2
2022-09-29T08:33:01.265Z,55.2
2022-09-29T08:34:00.986Z,55.2
2022-09-29T08:35:01.344Z,55.6
2022-09-29T08:36:03.285Z,55.8
2022-09-29T08:37:00.936Z,55.4
2022-09-29T08:38:00.943Z,55.0
2022-09-29T08:39:00.992Z,54.7
2022-09-29T08:40:01.672Z,54.7
2022-09-29T08:41:04.371Z,54.7
2022-09-29T08:42:05.482Z,54.7
2022-09-29T08:43:10.402Z,55.2
2022-09-29T08:44:20.075Z,54.5
2022-09-29T08:45:13.965Z,54.0
2022-09-29T08:46:06.919Z,55.0
2022-09-29T08:47:09.723Z,55.9
2022-09-29T08:48:21.199Z,55.2
2022-09-29T08:49:08.253Z,55.0
2022-09-29T08:50:10.190Z,54.7
2022-09-29T08:51:04.861Z,55.0
2022-09-29T08:52:15.746Z,54.9
2022-09-29T08:53:07.228Z,55.0
2022-09-29T08:54:10.604Z,55.2
2022-09-29T08:55:17.286Z,55.6
2022-09-29T08:56:04.896Z,55.2
2022-09-29T08:57:01.781Z,55.2
2022-09-29T08:58:01.400Z,54.3
2022-09-29T08:59:01.038Z,54.3
2022-09-29T09:00:01.163Z,55.0
2022-09-29T09:01:10.042Z,54.9
2022-09-29T09:02:20.496Z,54.5
2022-09-29T09:03:19.440Z,54.1
2022-09-29T09:04:19.983Z,54.0
2022-09-29T09:05:13.060Z,54.5
2022-09-29T09:06:13.706Z,55.0
2022-09-29T09:07:13.187Z,54.1
2022-09-29T09:08:08.048Z,54.3
2022-09-29T09:09:16.285Z,53.6
2022-09-29T09:10:13.828Z,52.9
2022-09-29T09:11:15.353Z,52.9
2022-09-29T09:12:17.565Z,52.9
2022-09-29T09:13:17.331Z,53.8
2022-09-29T09:14:13.090Z,54.1
2022-09-29T09:15:14.142Z,54.5
2022-09-29T09:16:11.656Z,55.2
2022-09-29T09:17:13.568Z,55.9
2022-09-29T09:18:15.067Z,56.1
2022-09-29T09:19:18.820Z,57.0
2022-09-29T09:20:16.352Z,57.2
2022-09-29T09:21:07.484Z,57.0
2022-09-29T09:22:13.887Z,55.6
2022-09-29T09:23:12.312Z,55.9
2022-09-29T09:24:14.657Z,54.9
2022-09-29T09:25:10.274Z,55.0
2022-09-29T09:26:02.632Z,55.6
2022-09-29T09:27:01.060Z,55.2
2022-09-29T09:28:06.013Z,55.9
2022-09-29T09:29:05.521Z,55.9
2022-09-29T09:30:06.175Z,56.3
2022-09-29T09:31:07.040Z,55.0
2022-09-29T09:32:07.331Z,54.9
2022-09-29T09:33:07.328Z,55.0
2022-09-29T09:34:06.885Z,55.2
2022-09-29T09:35:22.963Z,55.4
2022-09-29T09:36:08.391Z,54.3
2022-09-29T09:37:08.511Z,54.3
2022-09-29T09:38:07.893Z,54.1
2022-09-29T09:39:05.655Z,53.6
2022-09-29T09:40:12.536Z,54.0
2022-09-29T09:41:02.259Z,53.8
2022-09-29T09:42:08.169Z,54.3
2022-09-29T09:43:05.924Z,54.9
2022-09-29T09:44:06.100Z,55.2
2022-09-29T09:45:06.054Z,55.6
2022-09-29T09:46:11.407Z,54.9
2022-09-29T09:47:13.393Z,55.2
2022-09-29T09:48:06.962Z,55.2
2022-09-29T09:49:07.389Z,54.7
2022-09-29T09:50:11.220Z,54.9
2022-09-29T09:51:11.614Z,54.9
2022-09-29T09:52:08.819Z,55.0
2022-09-29T09:53:13.072Z,55.0
2022-09-29T09:54:06.164Z,54.3
2022-09-29T09:55:04.954Z,55.0
2022-09-29T09:56:13.104Z,53.8
2022-09-29T09:57:20.400Z,54.0
2022-09-29T09:58:18.296Z,54.5
2022-09-29T09:59:14.285Z,53.8
2022-09-29T10:00:11.108Z,53.4
2022-09-29T10:01:04.020Z,53.4
2022-09-29T10:02:01.219Z,54.0
2022-09-29T10:03:05.161Z,54.3
2022-09-29T10:04:01.816Z,55.2
2022-09-29T10:05:01.072Z,54.7
2022-09-29T10:06:01.178Z,53.6
2022-09-29T10:07:01.351Z,53.4
2022-09-29T10:08:02.152Z,54.0
2022-09-29T10:09:01.043Z,54.3
2022-09-29T10:10:05.451Z,55.4
2022-09-29T10:11:01.361Z,54.5
2022-09-29T10:12:01.501Z,53.8
2022-09-29T10:13:05.589Z,54.0
2022-09-29T10:14:09.012Z,53.6
2022-09-29T10:15:11.816Z,53.2
2022-09-29T10:16:12.643Z,53.2
2022-09-29T10:17:05.618Z,54.0
2022-09-29T10:18:10.046Z,53.6
2022-09-29T10:19:01.082Z,53.8
2022-09-29T10:20:04.200Z,53.6
2022-09-29T10:21:01.488Z,53.4
2022-09-29T10:22:12.003Z,54.0
2022-09-29T10:23:19.898Z,53.6
2022-09-29T10:24:02.281Z,53.2
2022-09-29T10:25:18.847Z,53.4
2022-09-29T10:26:08.128Z,54.1
2022-09-29T10:27:01.750Z,53.4
2022-09-29T10:28:01.333Z,53.4
2022-09-29T10:29:03.182Z,53.2
2022-09-29T10:30:02.623Z,53.1
2022-09-29T10:31:00.982Z,53.2
2022-09-29T10:32:05.798Z,54.3
2022-09-29T10:33:05.917Z,54.5
2022-09-29T10:34:12.765Z,54.7
2022-09-29T10:35:07.269Z,54.1
2022-09-29T10:36:09.590Z,54.0
2022-09-29T10:37:03.975Z,54.0
2022-09-29T10:38:05.369Z,53.1
2022-09-29T10:39:03.408Z,52.9
2022-09-29T10:40:12.313Z,53.1
2022-09-29T10:41:04.319Z,53.2
2022-09-29T10:42:00.969Z,53.1
2022-09-29T10:43:20.413Z,52.7
2022-09-29T10:44:19.348Z,53.8
2022-09-29T10:45:11.432Z,54.0
2022-09-29T10:46:01.429Z,53.8
2022-09-29T10:47:13.705Z,54.3
2022-09-29T10:48:12.887Z,54.7
2022-09-29T10:49:12.880Z,54.7
2022-09-29T10:50:13.652Z,55.2
2022-09-29T10:51:04.254Z,54.9
2022-09-29T10:52:04.057Z,55.9
2022-09-29T10:53:04.560Z,55.9
2022-09-29T10:54:07.327Z,55.2
2022-09-29T10:55:02.302Z,54.5
2022-09-29T10:56:08.564Z,54.0
2022-09-29T10:57:11.757Z,54.0
2022-09-29T10:58:05.625Z,53.8
2022-09-29T10:59:05.977Z,54.1
2022-09-29T11:00:01.202Z,54.0
2022-09-29T11:01:05.105Z,54.1
2022-09-29T11:02:01.949Z,53.8
2022-09-29T11:03:07.098Z,54.7
2022-09-29T11:04:05.230Z,55.6
2022-09-29T11:05:04.744Z,55.8
2022-09-29T11:06:03.547Z,55.6
2022-09-29T11:07:07.760Z,55.2
2022-09-29T11:08:01.486Z,55.8
2022-09-29T11:09:04.396Z,55.8
2022-09-29T11:10:01.268Z,54.9
2022-09-29T11:11:04.011Z,55.4
2022-09-29T11:12:05.043Z,54.7
2022-09-29T11:13:20.469Z,55.0
2022-09-29T11:14:01.288Z,54.9
2022-09-29T11:15:01.598Z,55.4
2022-09-29T11:16:04.658Z,54.9
2022-09-29T11:17:11.735Z,54.9
2022-09-29T11:18:01.035Z,54.3
2022-09-29T11:19:06.854Z,55.2
2022-09-29T11:20:04.261Z,55.8
2022-09-29T11:21:13.982Z,55.4
2022-09-29T11:22:20.355Z,54.5
2022-09-29T11:23:14.560Z,54.3
2022-09-29T11:24:11.558Z,54.7
2022-09-29T11:25:20.423Z,54.7
2022-09-29T11:26:17.859Z,54.1
2022-09-29T11:27:13.433Z,53.6
2022-09-29T11:28:19.869Z,53.2
2022-09-29T11:29:18.226Z,53.2
2022-09-29T11:30:07.169Z,53.2
2022-09-29T11:31:14.377Z,53.1
2022-09-29T11:32:16.366Z,53.2
2022-09-29T11:33:13.857Z,53.1
2022-09-29T11:34:18.916Z,53.1
2022-09-29T11:35:17.777Z,53.6
2022-09-29T11:36:08.039Z,53.8
2022-09-29T11:37:13.180Z,54.0
2022-09-29T11:38:12.881Z,53.6
2022-09-29T11:39:13.455Z,53.8
2022-09-29T11:40:07.607Z,54.0
2022-09-29T11:41:13.205Z,53.2
2022-09-29T11:42:16.210Z,53.8
2022-09-29T11:43:12.073Z,53.8
2022-09-29T11:44:18.326Z,54.3
2022-09-29T11:45:02.877Z,54.7
2022-09-29T11:46:13.789Z,54.5
2022-09-29T11:47:13.258Z,54.0
2022-09-29T11:48:20.408Z,53.8
2022-09-29T11:49:20.531Z,53.8
2022-09-29T11:50:19.259Z,54.0
2022-09-29T11:51:13.230Z,53.6
2022-09-29T11:52:20.427Z,53.4
2022-09-29T11:53:20.420Z,53.2
2022-09-29T11:54:19.290Z,54.1
2022-09-29T11:55:16.841Z,54.5
2022-09-29T11:56:14.162Z,54.7
2022-09-29T11:57:07.159Z,54.3
2022-09-29T11:58:18.861Z,54.1
2022-09-29T11:59:15.189Z,55.0
2022-09-29T12:00:08.798Z,54.1
2022-09-29T12:01:13.250Z,54.3
2022-09-29T12:02:20.546Z,54.1
2022-09-29T12:03:20.542Z,54.9
2022-09-29T12:04:12.378Z,55.2
2022-09-29T12:05:11.665Z,54.9
2022-09-29T12:06:19.364Z,55.0
2022-09-29T12:07:10.807Z,55.6
2022-09-29T12:08:16.597Z,55.6
2022-09-29T12:09:15.465Z,56.1
2022-09-29T12:10:24.932Z,55.6
2022-09-29T12:11:30.088Z,55.4
2022-09-29T12:12:23.098Z,55.2
2022-09-29T12:13:09.841Z,55.4
2022-09-29T12:14:08.931Z,55.2
2022-09-29T12:15:13.993Z,55.4
2022-09-29T12:16:08.347Z,54.9
2022-09-29T12:17:07.086Z,54.7
2022-09-29T12:18:09.305Z,54.5
2022-09-29T12:19:08.618Z,54.3
2022-09-29T12:20:05.017Z,54.7
2022-09-29T12:21:03.337Z,55.0
2022-09-29T12:22:06.903Z,55.0
2022-09-29T12:23:08.838Z,55.0
2022-09-29T12:24:05.765Z,54.9
2022-09-29T12:25:02.107Z,55.0
2022-09-29T12:26:06.763Z,55.0
2022-09-29T12:27:06.022Z,54.7
2022-09-29T12:28:10.594Z,54.5
2022-09-29T12:29:07.453Z,54.7
2022-09-29T12:30:12.748Z,54.9
2022-09-29T12:31:08.745Z,55.0
2022-09-29T12:32:11.166Z,55.6
2022-09-29T12:33:06.712Z,56.1
2022-09-29T12:34:08.077Z,56.8
2022-09-29T12:35:12.155Z,57.4
2022-09-29T12:36:12.436Z,58.1
2022-09-29T12:37:04.964Z,59.9
2022-09-29T12:38:14.933Z,60.3
2022-09-29T12:39:10.547Z,60.4
2022-09-29T12:40:09.481Z,61.7
2022-09-29T12:41:10.820Z,61.5
2022-09-29T12:42:16.769Z,62.6
2022-09-29T12:43:10.876Z,62.4
2022-09-29T12:44:12.226Z,62.6
2022-09-29T12:45:10.976Z,62.6
2022-09-29T12:46:09.706Z,61.5
2022-09-29T12:47:08.604Z,61.9
2022-09-29T12:48:10.709Z,62.4
2022-09-29T12:49:08.036Z,62.8
2022-09-29T12:50:10.479Z,63.0
2022-09-29T12:51:08.905Z,63.0
2022-09-29T12:52:04.683Z,63.0
2022-09-29T12:53:09.504Z,61.9
2022-09-29T12:54:14.542Z,61.2
2022-09-29T12:55:07.212Z,60.3
2022-09-29T12:56:04.571Z,59.4
2022-09-29T12:57:04.166Z,60.6
2022-09-29T12:58:05.616Z,61.9
2022-09-29T12:59:09.163Z,62.1
2022-09-29T13:00:04.451Z,62.2
2022-09-29T13:01:18.517Z,63.3
2022-09-29T13:02:08.309Z,64.4
2022-09-29T13:03:18.981Z,65.5
2022-09-29T13:04:20.404Z,63.9
2022-09-29T13:05:20.513Z,63.1
2022-09-29T13:06:20.424Z,62.2
2022-09-29T13:07:20.238Z,61.9
2022-09-29T13:08:20.407Z,61.7
2022-09-29T13:09:19.311Z,61.7
2022-09-29T13:10:17.580Z,62.4
2022-09-29T13:11:20.422Z,63.0
2022-09-29T13:12:13.686Z,62.8
2022-09-29T13:13:18.859Z,63.5
2022-09-29T13:14:20.418Z,63.1
2022-09-29T13:15:15.129Z,64.4
2022-09-29T13:16:13.979Z,64.0
2022-09-29T13:17:15.971Z,64.4
2022-09-29T13:18:19.694Z,63.7
2022-09-29T13:19:25.990Z,64.2